Terminal Aerodrome Forecast
Issued by NWS Austin/San Antonio, TX

Home | Current Version | Previous Version | Text Only | Print | Product List | Glossary On
Versions: 1 2 3 4 5 6 7 8 9 10 11 12 13 14 15 16 17 18 19 20 21 22 23 24
693
FTUS44 KEWX 251724
TAFSAT
TAF
KSAT 251724Z 2518/2624 01005KT P6SM SKC
     FM260100 16005KT P6SM SKC
     FM260900 15006KT P6SM OVC015
     FM261600 17012KT P6SM SCT020 BKN040
     FM262000 16013G23KT P6SM SCT050=

USA.gov is the U.S. government's official web portal to all federal, state and local government web resources and services.